Beale Air Force Base
KBAB : now visible

Airfield :











YOU CAN JOIN US ON...

 
LOGIN :

Register | Disclaimer

   EN    FR    IT 

 









Legend :    VFR   Marginal VFR   IFR   Intensive IFR   Very Intensive IFR
Visi :
Ceiling :
>= 8 km
>= 3000ft
5 to 8 km
1000 to 3000 ft
1500m to 5 km
500 to 1000 ft
800 to 1500m
200 to 500 ft
< 800m
< 200 ft
Symbols :   Thunderstorms  Fog  Heavy snow  Heavy precipitations  Wind > 20 kt






- Airport Elevation : 113 ft


KBAB - Beale Air Force Base

CURRENT METAR :
  • 120242Z 17004KT 10SM -DZ OVC025 12/11 A3017 RMK AO2A RAE09DZB09E19DZB42 SLP220 $

EXPIRED METARs :
  • 120219Z 13005KT 10SM BKN025 OVC031 12/11 A3017 RMK AO2A RAE09DZB09E19 SLP220 $
  • 120213Z 12005KT 10SM -DZ BKN027 OVC032 12/11 A3017 RMK AO2A RAE09DZB09 CIG 025 RWY15 SLP220 $
  • 120158Z 13006KT 5SM -RA BR FEW019 OVC030 12/11 A3018 RMK AO2A RAE41DZB41E56RAB56 SLP223 P0010 T01190114 $
  • 120137Z 14005KT 4SM -RA BR FEW003 OVC034 12/11 A3019 RMK AO2A SLP227 $
  • 120122Z 09003KT 1 5/8SM RA BR FEW002 BKN026 12/11 A3018 RMK AO2A PRESFR SLP223 $
  • 120107Z 19003KT 2 3/4SM -RA BR FEW003 OVC026 12/11 A3020 RMK AO2A VIS 2 3/4V4 SLP230 $
  • 120058Z 00000KT 4SM -RA BR OVC026 12/11 A3020 RMK AO2A RAE02DZB48E50RAB50 SLP230 P0000 T01190114 $
  • 120048Z 15003KT 3SM -DZ BR OVC027 12/11 A3020 RMK AO2A RAE02DZB48 CIG 026 RWY15 SLP230 $
  • 120017Z 14003KT 3SM BR OVC028 12/11 A3020 RMK AO2A RAE02 CIG 025 RWY15 SLP230 $
  • 120002Z 00000KT 4SM BR BKN031 OVC040 12/11 A3020 RMK AO2A RAE02 SLP230 $

TAF TAF KBAB
Valid from the 11 at 19:00 until the 13 at 01:00 UTC


111900Z 1119/1301 VRB06KT 9999 VCSH FEW035 OVC060 OVC140 QNH3022INS
BECMG 1122/1123 VRB06KT 8000 -SHRA BKN025 OVC100 QNH3018INS
BECMG 1212/1213 13009KT 8000 -RA SCT008 BKN025 OVC050 QNH3019INS
TEMPO 1213/1217 VRB06KT 4800 BR BKN008
BECMG 1220/1221 12006KT 9999 VCSH BKN015 OVC030 QNH3020INS
TEMPO 1221/1301 8000 -SHRA TX13/1123Z TN10/1209Z



MET'MAP, your aeronautical weather chart ! - Copyright ORBIFLY December 2007 - Disclaimer

ORBIFLY MET'MAP TEAM :

Programming & Development : Alexandra Zaïnal
Concept & original design : Baudouin d'Aumeries
Assistance for programming : Marc-Olivier Méhu
Technical & hardware support : Manuel Goepfert

Contact : metmap@orbifly.com




SOURCES & CREDITS :

   NOAA       Earth
Advisory